KPHN/PHN METAR and TAF weather

Enter ICAO airport designator
Station Type Date Time Source
KPHN METAR 2022/07/03 13:55 UTC NOAA

KPHN 031355Z AUTO 06004KT 10SM OVC065 20/10 A3018 RMK AO2


Station Type Date Time Source
KPHN Decoded METAR 2022/07/03 13:55 UTC NOAA

St. Clair County International, MI, United States (KPHN) 42-55N 082-32W
Jul 03, 2022 - 09:55 AM EDT / 2022.07.03 1355 UTC
Wind: from the ENE (060 degrees) at 5 MPH (4 KT):0
Visibility: 10 mile(s):0
Sky conditions: overcast
Temperature: 68 F (20 C)
Dew Point: 50 F (10 C)
Relative Humidity: 52%
Pressure (altimeter): 30.18 in. Hg (1022 hPa)
ob: KPHN 031355Z AUTO 06004KT 10SM OVC065 20/10 A3018 RMK AO2
cycle: 14

Station Type Date Time Source
KPHN TAF UTC NOAA

Error!

Example: see airport list